createdAt,value
2022-12-13T00:01:37.013Z,-1.75
2022-12-13T00:03:38.801Z,-1.78
2022-12-13T00:05:46.468Z,-1.81
2022-12-13T00:07:50.954Z,-1.82
2022-12-13T00:09:52.654Z,-1.83
2022-12-13T00:11:54.785Z,-1.83
2022-12-13T00:13:56.567Z,-1.86
2022-12-13T00:16:04.022Z,-1.89
2022-12-13T00:18:05.749Z,-1.90
2022-12-13T00:20:07.956Z,-1.92
2022-12-13T00:22:09.484Z,-1.95
2022-12-13T00:24:11.621Z,-1.96
2022-12-13T00:26:16.578Z,-1.98
2022-12-13T00:28:20.905Z,-2.02
2022-12-13T00:30:34.310Z,-2.04
2022-12-13T00:32:35.903Z,-2.04
2022-12-13T00:34:37.507Z,-2.08
2022-12-13T00:36:39.850Z,-2.10
2022-12-13T00:38:41.869Z,-2.12
2022-12-13T00:40:44.627Z,-2.13
2022-12-13T00:42:46.214Z,-2.16
2022-12-13T00:44:47.826Z,-2.16
2022-12-13T00:46:51.855Z,-2.19
2022-12-13T00:48:56.203Z,-2.21
2022-12-13T00:50:58.179Z,-2.21
2022-12-13T00:53:01.243Z,-2.24
2022-12-13T00:55:02.837Z,-2.25
2022-12-13T00:57:04.421Z,-2.27
2022-12-13T00:59:07.683Z,-2.27
2022-12-13T01:01:14.846Z,-2.30
2022-12-13T01:03:25.405Z,-2.32
2022-12-13T01:06:11.191Z,-2.34
2022-12-13T01:07:51.266Z,-2.36
2022-12-13T01:09:52.981Z,-2.36
2022-12-13T01:11:59.425Z,-2.38
2022-12-13T01:14:01.148Z,-2.39
2022-12-13T01:16:05.048Z,-2.41
2022-12-13T01:18:06.716Z,-2.42
2022-12-13T01:20:09.491Z,-2.44
2022-12-13T01:22:11.875Z,-2.43
2022-12-13T01:24:13.810Z,-2.45
2022-12-13T01:26:20.717Z,-2.47
2022-12-13T01:28:23.310Z,-2.49
2022-12-13T01:30:25.270Z,-2.52
2022-12-13T01:32:26.790Z,-2.52
2022-12-13T01:34:31.604Z,-2.54
2022-12-13T01:36:38.311Z,-2.54
2022-12-13T01:38:40.046Z,-2.54
2022-12-13T01:40:50.441Z,-2.56
2022-12-13T01:42:52.352Z,-2.59
2022-12-13T01:44:57.124Z,-2.61
2022-12-13T01:47:01.373Z,-2.61
2022-12-13T01:49:05.580Z,-2.63
2022-12-13T01:51:27.654Z,-2.65
2022-12-13T01:53:33.367Z,-2.66
2022-12-13T01:55:41.296Z,-2.69
2022-12-13T01:57:48.092Z,-2.69
2022-12-13T01:59:50.716Z,-2.70
2022-12-13T02:02:00.519Z,-2.73
2022-12-13T02:04:02.762Z,-2.75
2022-12-13T02:06:16.594Z,-2.76
2022-12-13T02:08:20.543Z,-2.77
2022-12-13T02:10:22.280Z,-2.80
2022-12-13T02:12:35.973Z,-2.80
2022-12-13T02:14:37.929Z,-2.83
2022-12-13T02:17:06.922Z,-2.83
2022-12-13T02:19:27.374Z,-2.87
2022-12-13T02:21:28.951Z,-2.88
2022-12-13T02:23:36.310Z,-2.89
2022-12-13T02:25:54.833Z,-2.91
2022-12-13T02:28:30.728Z,-2.94
2022-12-13T02:30:44.885Z,-2.96
2022-12-13T02:33:21.437Z,-2.97
2022-12-13T02:35:37.487Z,-2.99
2022-12-13T02:38:22.944Z,-3.00
2022-12-13T02:40:41.960Z,-3.01
2022-12-13T02:42:54.951Z,-3.04
2022-12-13T02:45:20.834Z,-3.05
2022-12-13T02:47:27.760Z,-3.05
2022-12-13T02:49:35.878Z,-3.06
2022-12-13T02:51:39.529Z,-3.07
2022-12-13T02:53:42.992Z,-3.08
2022-12-13T02:55:44.662Z,-3.09
2022-12-13T02:57:46.607Z,-3.11
2022-12-13T02:59:48.319Z,-3.11
2022-12-13T03:02:21.475Z,-3.13
2022-12-13T03:05:05.173Z,-3.14
2022-12-13T03:07:28.549Z,-3.15
2022-12-13T03:10:01.285Z,-3.16
2022-12-13T03:12:51.293Z,-3.18
2022-12-13T03:14:58.937Z,-3.20
2022-12-13T03:17:02.696Z,-3.22
2022-12-13T03:19:07.710Z,-3.23
2022-12-13T03:21:13.459Z,-3.23
2022-12-13T03:23:18.145Z,-3.25
2022-12-13T03:25:30.969Z,-3.25
2022-12-13T03:27:40.052Z,-3.26
2022-12-13T03:29:41.742Z,-3.26
2022-12-13T03:31:43.437Z,-3.25
2022-12-13T03:33:46.645Z,-3.27
2022-12-13T03:35:48.789Z,-3.27
2022-12-13T03:37:53.689Z,-3.27
2022-12-13T03:39:55.669Z,-3.28
2022-12-13T03:41:57.482Z,-3.28
2022-12-13T03:44:06.128Z,-3.29
2022-12-13T03:46:09.231Z,-3.28
2022-12-13T03:48:10.777Z,-3.29
2022-12-13T03:50:26.130Z,-3.29
2022-12-13T03:52:31.913Z,-3.30
2022-12-13T03:54:33.468Z,-3.30
2022-12-13T03:56:35.088Z,-3.30
2022-12-13T03:58:39.153Z,-3.31
2022-12-13T04:00:40.976Z,-3.31
2022-12-13T04:02:43.932Z,-3.32
2022-12-13T04:04:45.541Z,-3.32
2022-12-13T04:06:47.267Z,-3.34
2022-12-13T04:08:50.950Z,-3.34
2022-12-13T04:10:53.293Z,-3.35
2022-12-13T04:13:15.846Z,-3.36
2022-12-13T04:15:20.452Z,-3.38
2022-12-13T04:17:22.278Z,-3.37
2022-12-13T04:19:24.348Z,-3.40
2022-12-13T04:21:25.997Z,-3.42
2022-12-13T04:23:27.704Z,-3.42
2022-12-13T04:25:29.321Z,-3.43
2022-12-13T04:27:31.304Z,-3.46
2022-12-13T04:29:33.806Z,-3.46
2022-12-13T04:31:36.667Z,-3.48
2022-12-13T04:33:38.325Z,-3.48
2022-12-13T04:35:39.890Z,-3.50
2022-12-13T04:37:43.310Z,-3.51
2022-12-13T04:39:47.804Z,-3.53
2022-12-13T04:41:53.895Z,-3.54
2022-12-13T04:43:56.144Z,-3.55
2022-12-13T04:45:58.768Z,-3.58
2022-12-13T04:48:00.448Z,-3.58
2022-12-13T04:50:02.077Z,-3.60
2022-12-13T04:52:06.047Z,-3.62
2022-12-13T04:54:23.284Z,-3.64
2022-12-13T04:56:29.428Z,-3.67
2022-12-13T04:58:32.041Z,-3.66
2022-12-13T05:00:33.586Z,-3.66
2022-12-13T05:02:36.382Z,-3.68
2022-12-13T05:04:38.296Z,-3.68
2022-12-13T05:06:39.920Z,-3.68
2022-12-13T05:08:42.224Z,-3.68
2022-12-13T05:10:43.706Z,-3.68
2022-12-13T05:12:45.432Z,-3.69
2022-12-13T05:14:46.945Z,-3.69
2022-12-13T05:16:48.770Z,-3.70
2022-12-13T05:18:50.528Z,-3.72
2022-12-13T05:20:52.374Z,-3.71
2022-12-13T05:22:57.687Z,-3.72
2022-12-13T05:24:59.469Z,-3.73
2022-12-13T05:27:01.050Z,-3.75
2022-12-13T05:29:02.808Z,-3.75
2022-12-13T05:31:23.626Z,-3.77
2022-12-13T05:33:31.316Z,-3.78
2022-12-13T05:35:33.880Z,-3.80
2022-12-13T05:37:38.499Z,-3.81
2022-12-13T05:39:40.142Z,-3.81
2022-12-13T05:41:42.135Z,-3.81
2022-12-13T05:43:45.752Z,-3.81
2022-12-13T05:45:47.442Z,-3.80
2022-12-13T05:47:53.441Z,-3.79
2022-12-13T05:49:55.144Z,-3.80
2022-12-13T05:52:01.943Z,-3.81
2022-12-13T05:54:04.710Z,-3.81
2022-12-13T05:56:06.820Z,-3.82
2022-12-13T05:58:13.263Z,-3.81
2022-12-13T06:00:30.156Z,-3.81
2022-12-13T06:02:32.578Z,-3.82
2022-12-13T06:04:34.306Z,-3.82
2022-12-13T06:06:37.538Z,-3.83
2022-12-13T06:08:40.083Z,-3.85
2022-12-13T06:10:44.456Z,-3.87
2022-12-13T06:12:46.124Z,-3.88
2022-12-13T06:14:47.748Z,-3.89
2022-12-13T06:16:49.414Z,-3.90
2022-12-13T06:18:59.308Z,-3.90
2022-12-13T06:21:06.916Z,-3.90
2022-12-13T06:23:08.649Z,-3.91
2022-12-13T06:25:30.935Z,-3.93
2022-12-13T06:27:32.248Z,-3.94
2022-12-13T06:29:37.261Z,-3.95
2022-12-13T06:31:39.182Z,-3.95
2022-12-13T06:33:40.863Z,-3.96
2022-12-13T06:35:42.778Z,-3.96
2022-12-13T06:37:44.439Z,-3.98
2022-12-13T06:39:52.452Z,-3.96
2022-12-13T06:41:58.391Z,-3.99
2022-12-13T06:43:59.899Z,-4.00
2022-12-13T06:46:06.111Z,-4.02
2022-12-13T06:48:08.490Z,-4.02
2022-12-13T06:50:15.030Z,-4.01
2022-12-13T06:52:17.157Z,-4.02
2022-12-13T06:54:21.924Z,-4.03
2022-12-13T06:56:26.647Z,-4.02
2022-12-13T06:58:30.280Z,-4.04
2022-12-13T07:00:36.886Z,-4.03
2022-12-13T07:02:42.818Z,-4.05
2022-12-13T07:04:44.716Z,-4.04
2022-12-13T07:06:46.400Z,-4.05
2022-12-13T07:08:57.388Z,-4.05
2022-12-13T07:10:59.048Z,-4.05
2022-12-13T07:13:00.730Z,-4.06
2022-12-13T07:15:02.515Z,-4.06
2022-12-13T07:17:04.643Z,-4.06
2022-12-13T07:19:07.064Z,-4.08
2022-12-13T07:21:25.176Z,-4.07
2022-12-13T07:23:26.769Z,-4.06
2022-12-13T07:25:31.678Z,-4.07
2022-12-13T07:27:34.303Z,-4.07
2022-12-13T07:29:35.921Z,-4.07
2022-12-13T07:31:37.819Z,-4.06
2022-12-13T07:33:42.857Z,-4.06
2022-12-13T07:35:44.830Z,-4.07
2022-12-13T07:37:46.383Z,-4.08
2022-12-13T07:39:48.117Z,-4.07
2022-12-13T07:41:52.554Z,-4.07
2022-12-13T07:43:55.771Z,-4.08
2022-12-13T07:46:07.176Z,-4.10
2022-12-13T07:48:08.885Z,-4.08
2022-12-13T07:50:24.338Z,-4.07
2022-12-13T07:52:27.327Z,-4.07
2022-12-13T07:54:33.095Z,-4.07
2022-12-13T07:56:36.352Z,-4.06
2022-12-13T07:58:38.936Z,-4.03
2022-12-13T08:00:46.781Z,-4.03
2022-12-13T08:02:48.701Z,-4.01
2022-12-13T08:04:54.986Z,-4.02
2022-12-13T08:06:59.654Z,-4.00
2022-12-13T08:09:05.669Z,-3.98
2022-12-13T08:11:09.934Z,-3.97
2022-12-13T08:13:11.670Z,-3.94
2022-12-13T08:15:14.236Z,-3.92
2022-12-13T08:17:16.200Z,-3.92
2022-12-13T08:19:17.856Z,-3.89
2022-12-13T08:21:51.939Z,-3.87
2022-12-13T08:23:42.468Z,-3.85
2022-12-13T08:25:51.836Z,-3.81
2022-12-13T08:27:53.736Z,-3.77
2022-12-13T08:30:04.040Z,-3.74
2022-12-13T08:32:11.877Z,-3.74
2022-12-13T08:34:13.490Z,-3.71
2022-12-13T08:36:17.819Z,-3.70
2022-12-13T08:38:22.953Z,-3.67
2022-12-13T08:40:26.487Z,-3.64
2022-12-13T08:42:30.721Z,-3.62
2022-12-13T08:44:32.437Z,-3.59
2022-12-13T08:46:36.944Z,-3.57
2022-12-13T08:48:44.275Z,-3.56
2022-12-13T08:50:51.157Z,-3.52
2022-12-13T08:52:52.806Z,-3.50
2022-12-13T08:54:57.088Z,-3.46
2022-12-13T08:56:58.943Z,-3.44
2022-12-13T08:59:02.365Z,-3.40
2022-12-13T09:01:07.009Z,-3.38
2022-12-13T09:03:10.048Z,-3.35
2022-12-13T09:05:33.518Z,-3.30
2022-12-13T09:07:37.203Z,-3.26
2022-12-13T09:09:38.812Z,-3.22
2022-12-13T09:11:41.007Z,-3.17
2022-12-13T09:13:44.018Z,-3.13
2022-12-13T09:15:46.512Z,-3.08
2022-12-13T09:17:52.444Z,-3.03
2022-12-13T09:19:58.105Z,-3.00
2022-12-13T09:22:02.621Z,-2.97
2022-12-13T09:24:04.882Z,-2.93
2022-12-13T09:26:26.203Z,-2.90
2022-12-13T09:28:29.297Z,-2.85
2022-12-13T09:30:31.791Z,-2.80
2022-12-13T09:32:33.985Z,-2.80
2022-12-13T09:34:41.500Z,-2.76
2022-12-13T09:36:48.120Z,-2.72
2022-12-13T09:38:52.188Z,-2.67
2022-12-13T09:40:58.947Z,-2.64
2022-12-13T09:43:13.431Z,-2.60
2022-12-13T09:45:31.692Z,-2.55
2022-12-13T09:47:37.945Z,-2.51
2022-12-13T09:49:51.788Z,-2.48
2022-12-13T09:52:11.723Z,-2.44
2022-12-13T09:54:23.261Z,-2.37
2022-12-13T09:56:25.098Z,-2.33
2022-12-13T09:58:30.306Z,-2.28
2022-12-13T10:00:36.778Z,-2.22
2022-12-13T10:02:51.195Z,-2.16
2022-12-13T10:05:00.713Z,-2.10
2022-12-13T10:07:12.911Z,-2.04
2022-12-13T10:09:18.665Z,-1.97
2022-12-13T10:11:21.565Z,-1.90
2022-12-13T10:13:46.287Z,-1.85
2022-12-13T10:15:53.935Z,-1.81
2022-12-13T10:17:56.412Z,-1.72
2022-12-13T10:20:00.827Z,-1.67
2022-12-13T10:22:06.105Z,-1.63
2022-12-13T10:24:32.994Z,-1.56
2022-12-13T10:26:39.706Z,-1.48
2022-12-13T10:28:46.091Z,-1.42
2022-12-13T10:30:53.785Z,-1.36
2022-12-13T10:33:00.980Z,-1.28
2022-12-13T10:35:20.545Z,-1.21
2022-12-13T10:37:31.570Z,-1.15
2022-12-13T10:39:41.896Z,-1.10
2022-12-13T10:41:45.595Z,-1.02
2022-12-13T10:44:27.195Z,-0.95
2022-12-13T10:46:31.232Z,-0.87
2022-12-13T10:48:49.076Z,-0.82
2022-12-13T10:50:59.938Z,-0.76
2022-12-13T10:53:01.949Z,-0.70
2022-12-13T10:55:22.915Z,-0.62
2022-12-13T10:57:26.024Z,-0.56
2022-12-13T10:59:31.913Z,-0.53
2022-12-13T11:01:33.870Z,-0.49
2022-12-13T11:03:35.774Z,-0.43
2022-12-13T11:05:41.347Z,-0.37
2022-12-13T11:07:43.005Z,-0.30
2022-12-13T11:10:04.706Z,-0.21
2022-12-13T11:12:15.485Z,-0.15
2022-12-13T11:14:31.710Z,-0.09
2022-12-13T11:16:40.655Z,-0.04
2022-12-13T11:18:42.581Z,0.04
2022-12-13T11:20:59.417Z,0.10
2022-12-13T11:23:05.368Z,0.16
2022-12-13T11:25:18.541Z,0.22
2022-12-13T11:27:32.896Z,0.26
2022-12-13T11:30:01.121Z,0.34
2022-12-13T11:32:24.685Z,0.39
2022-12-13T11:34:57.791Z,0.47
2022-12-13T11:37:06.027Z,0.52
2022-12-13T11:39:20.293Z,0.56
2022-12-13T11:41:35.304Z,0.62
2022-12-13T11:43:44.157Z,0.71
2022-12-13T11:45:54.484Z,0.76
2022-12-13T11:48:16.192Z,0.80
2022-12-13T11:50:33.953Z,0.87
2022-12-13T11:52:41.120Z,0.93
2022-12-13T11:55:03.800Z,1.00
2022-12-13T11:57:19.529Z,1.06
2022-12-13T11:59:39.650Z,1.12
2022-12-13T12:01:47.804Z,1.16
2022-12-13T12:04:18.185Z,1.23
2022-12-13T12:06:46.254Z,1.30
2022-12-13T12:09:12.011Z,1.37
2022-12-13T12:11:35.801Z,1.46
2022-12-13T12:13:50.407Z,1.50
2022-12-13T12:15:56.212Z,1.57
2022-12-13T12:17:59.140Z,1.61
2022-12-13T12:20:01.211Z,1.67
2022-12-13T12:22:15.844Z,1.74
2022-12-13T12:24:31.622Z,1.79
2022-12-13T12:26:51.889Z,1.84
2022-12-13T12:29:17.538Z,1.91
2022-12-13T12:31:35.699Z,1.96
2022-12-13T12:34:28.070Z,2.01
2022-12-13T12:36:32.665Z,2.09
2022-12-13T12:38:37.396Z,2.16
2022-12-13T12:43:30.765Z,2.29
2022-12-13T12:45:58.398Z,2.33
2022-12-13T12:51:05.857Z,2.46
2022-12-13T12:53:23.731Z,2.52
2022-12-13T12:55:51.326Z,2.53
2022-12-13T12:57:55.919Z,2.60
2022-12-13T13:00:15.969Z,2.67
2022-12-13T13:02:25.215Z,2.68
2022-12-13T13:04:39.259Z,2.71
2022-12-13T13:06:47.273Z,2.78
2022-12-13T13:09:05.149Z,2.81
2022-12-13T13:11:24.500Z,2.86
2022-12-13T13:13:35.464Z,2.91
2022-12-13T13:15:40.414Z,2.96
2022-12-13T13:17:45.060Z,3.00
2022-12-13T13:19:49.664Z,3.03
2022-12-13T13:22:01.610Z,3.07
2022-12-13T13:24:25.285Z,3.10
2022-12-13T13:26:36.206Z,3.16
2022-12-13T13:28:38.737Z,3.23
2022-12-13T13:31:02.261Z,3.30
2022-12-13T13:33:07.115Z,3.32
2022-12-13T13:35:32.248Z,3.34
2022-12-13T13:37:48.358Z,3.40
2022-12-13T13:39:59.610Z,3.41
2022-12-13T13:42:22.050Z,3.43
2022-12-13T13:44:49.784Z,3.47
2022-12-13T13:47:12.230Z,3.48
2022-12-13T13:49:14.331Z,3.52
2022-12-13T13:52:16.694Z,3.52
2022-12-13T13:54:28.984Z,3.53
2022-12-13T13:56:50.088Z,3.57
2022-12-13T13:59:30.012Z,3.56
2022-12-13T14:01:37.535Z,3.59
2022-12-13T14:04:11.696Z,3.55
2022-12-13T14:06:41.847Z,3.54
2022-12-13T14:09:08.177Z,3.57
2022-12-13T14:11:40.233Z,3.57
2022-12-13T14:13:53.969Z,3.55
2022-12-13T14:16:33.301Z,3.52
2022-12-13T14:18:59.316Z,3.51
2022-12-13T14:21:12.591Z,3.48
2022-12-13T14:23:29.799Z,3.46
2022-12-13T14:26:10.811Z,3.41
2022-12-13T14:28:49.947Z,3.35
2022-12-13T14:31:01.409Z,3.32
2022-12-13T14:33:03.470Z,3.27
2022-12-13T14:35:25.717Z,3.22
2022-12-13T14:37:37.866Z,3.17
2022-12-13T14:39:45.205Z,3.17
2022-12-13T14:41:49.521Z,3.16
2022-12-13T14:44:35.312Z,3.12
2022-12-13T14:46:36.968Z,3.11
2022-12-13T14:48:53.683Z,3.08
2022-12-13T14:50:55.410Z,3.05
2022-12-13T14:52:57.695Z,3.04
2022-12-13T14:55:01.464Z,2.98
2022-12-13T14:57:04.721Z,2.96
2022-12-13T14:59:13.296Z,2.91
2022-12-13T15:01:33.339Z,2.88
2022-12-13T15:03:35.253Z,2.85
2022-12-13T15:05:50.915Z,2.80
2022-12-13T15:07:53.273Z,2.77
2022-12-13T15:10:08.347Z,2.73
2022-12-13T15:12:25.446Z,2.68
2022-12-13T15:14:31.716Z,2.64
2022-12-13T15:16:33.666Z,2.58
2022-12-13T15:18:38.749Z,2.53
2022-12-13T15:21:21.015Z,2.46
2022-12-13T15:23:30.095Z,2.43
2022-12-13T15:25:46.183Z,2.38
2022-12-13T15:27:50.376Z,2.33
2022-12-13T15:29:54.323Z,2.29
2022-12-13T15:32:04.395Z,2.24
2022-12-13T15:34:34.865Z,2.18
2022-12-13T15:36:38.587Z,2.14
2022-12-13T15:39:02.966Z,2.09
2022-12-13T15:41:05.115Z,2.04
2022-12-13T15:43:14.725Z,2.00
2022-12-13T15:45:24.390Z,1.94
2022-12-13T15:47:28.513Z,1.88
2022-12-13T15:49:30.742Z,1.84
2022-12-13T15:51:32.423Z,1.79
2022-12-13T15:53:34.465Z,1.74
2022-12-13T15:55:37.003Z,1.70
2022-12-13T15:57:56.777Z,1.64
2022-12-13T16:00:05.569Z,1.61
2022-12-13T16:02:24.348Z,1.55
2022-12-13T16:04:31.629Z,1.51
2022-12-13T16:06:39.203Z,1.47
2022-12-13T16:08:40.787Z,1.43
2022-12-13T16:10:50.551Z,1.39
2022-12-13T16:13:01.040Z,1.35
2022-12-13T16:15:28.597Z,1.28
2022-12-13T16:17:30.721Z,1.25
2022-12-13T16:19:32.699Z,1.21
2022-12-13T16:21:34.328Z,1.18
2022-12-13T16:23:35.960Z,1.13
2022-12-13T16:25:40.129Z,1.09
2022-12-13T16:27:44.357Z,1.06
2022-12-13T16:29:46.221Z,1.01
2022-12-13T16:31:48.947Z,0.98
2022-12-13T16:33:52.669Z,0.92
2022-12-13T16:35:55.663Z,0.89
2022-12-13T16:37:59.402Z,0.86
2022-12-13T16:40:29.126Z,0.79
2022-12-13T16:42:35.584Z,0.76
2022-12-13T16:44:41.083Z,0.71
2022-12-13T16:47:11.452Z,0.67
2022-12-13T16:49:17.748Z,0.61
2022-12-13T16:51:19.720Z,0.57
2022-12-13T16:53:21.343Z,0.54
2022-12-13T16:55:23.460Z,0.50
2022-12-13T16:57:25.257Z,0.47
2022-12-13T16:59:27.682Z,0.44
2022-12-13T17:01:29.528Z,0.40
2022-12-13T17:03:34.401Z,0.38
2022-12-13T17:05:39.701Z,0.34
2022-12-13T17:07:41.212Z,0.29
2022-12-13T17:09:42.919Z,0.27
2022-12-13T17:11:52.464Z,0.24
2022-12-13T17:13:54.411Z,0.22
2022-12-13T17:15:59.177Z,0.20
2022-12-13T17:18:02.067Z,0.16
2022-12-13T17:20:08.764Z,0.14
2022-12-13T17:22:10.601Z,0.12
2022-12-13T17:24:12.764Z,0.11
2022-12-13T17:26:14.429Z,0.08
2022-12-13T17:28:15.978Z,0.05
2022-12-13T17:30:18.127Z,0.05
2022-12-13T17:32:21.942Z,0.05
2022-12-13T17:34:23.818Z,0.01
2022-12-13T17:36:26.953Z,0.00
2022-12-13T17:38:30.655Z,-0.01
2022-12-13T17:40:33.428Z,-0.04
2022-12-13T17:42:35.130Z,-0.04
2022-12-13T17:44:36.992Z,-0.06
2022-12-13T17:46:54.514Z,-0.07
2022-12-13T17:48:57.198Z,-0.09
2022-12-13T17:50:59.304Z,-0.11
2022-12-13T17:53:00.836Z,-0.12
2022-12-13T17:55:04.545Z,-0.14
2022-12-13T17:57:10.381Z,-0.14
2022-12-13T17:59:20.353Z,-0.15
2022-12-13T18:01:24.460Z,-0.17
2022-12-13T18:03:26.908Z,-0.20
2022-12-13T18:05:28.706Z,-0.19
2022-12-13T18:07:30.627Z,-0.20
2022-12-13T18:09:32.207Z,-0.23
2022-12-13T18:11:35.218Z,-0.26
2022-12-13T18:13:37.279Z,-0.27
2022-12-13T18:15:44.718Z,-0.29
2022-12-13T18:18:10.568Z,-0.30
2022-12-13T18:20:16.739Z,-0.33
2022-12-13T18:22:24.541Z,-0.37
2022-12-13T18:24:26.420Z,-0.38
2022-12-13T18:26:28.365Z,-0.40
2022-12-13T18:28:36.539Z,-0.42
2022-12-13T18:30:38.429Z,-0.45
2022-12-13T18:32:40.557Z,-0.48
2022-12-13T18:34:42.234Z,-0.52
2022-12-13T18:36:43.934Z,-0.53
2022-12-13T18:38:45.687Z,-0.55
2022-12-13T18:40:47.627Z,-0.57
2022-12-13T18:42:49.253Z,-0.58
2022-12-13T18:44:54.498Z,-0.63
2022-12-13T18:46:57.809Z,-0.66
2022-12-13T18:49:01.266Z,-0.66
2022-12-13T18:51:05.709Z,-0.68
2022-12-13T18:53:07.444Z,-0.69
2022-12-13T18:55:11.706Z,-0.71
2022-12-13T18:57:13.687Z,-0.72
2022-12-13T18:59:15.469Z,-0.74
2022-12-13T19:01:18.755Z,-0.75
2022-12-13T19:03:20.519Z,-0.77
2022-12-13T19:05:22.309Z,-0.77
2022-12-13T19:07:26.596Z,-0.78
2022-12-13T19:09:28.182Z,-0.80
2022-12-13T19:11:32.186Z,-0.80
2022-12-13T19:13:33.835Z,-0.82
2022-12-13T19:15:39.619Z,-0.81
2022-12-13T19:17:41.263Z,-0.83
2022-12-13T19:19:43.960Z,-0.82
2022-12-13T19:21:49.846Z,-0.84
2022-12-13T19:23:56.857Z,-0.84
2022-12-13T19:26:08.594Z,-0.83
2022-12-13T19:28:11.607Z,-0.83
2022-12-13T19:30:13.390Z,-0.83
2022-12-13T19:32:14.943Z,-0.83
2022-12-13T19:34:16.592Z,-0.81
2022-12-13T19:36:19.436Z,-0.83
2022-12-13T19:38:21.082Z,-0.82
2022-12-13T19:40:22.680Z,-0.83
2022-12-13T19:42:24.349Z,-0.83
2022-12-13T19:44:26.119Z,-0.84
2022-12-13T19:46:27.913Z,-0.84
2022-12-13T19:48:30.377Z,-0.84
2022-12-13T19:50:35.120Z,-0.85
2022-12-13T19:52:41.663Z,-0.87
2022-12-13T19:54:43.574Z,-0.86
2022-12-13T19:56:45.435Z,-0.88
2022-12-13T19:58:48.574Z,-0.89
2022-12-13T20:00:57.098Z,-0.89
2022-12-13T20:02:59.262Z,-0.87
2022-12-13T20:05:01.841Z,-0.85
2022-12-13T20:07:03.476Z,-0.85
2022-12-13T20:09:06.366Z,-0.84
2022-12-13T20:11:11.472Z,-0.85
2022-12-13T20:13:13.901Z,-0.86
2022-12-13T20:15:20.816Z,-0.83
2022-12-13T20:17:22.551Z,-0.83
2022-12-13T20:19:24.520Z,-0.85
2022-12-13T20:21:27.654Z,-0.85
2022-12-13T20:23:29.993Z,-0.85
2022-12-13T20:25:37.331Z,-0.84
2022-12-13T20:27:40.070Z,-0.83
2022-12-13T20:29:42.087Z,-0.83
2022-12-13T20:31:51.763Z,-0.82
2022-12-13T20:34:03.107Z,-0.84
2022-12-13T20:36:26.492Z,-0.83
2022-12-13T20:38:28.479Z,-0.80
2022-12-13T20:40:30.237Z,-0.79
2022-12-13T20:42:32.960Z,-0.78
2022-12-13T20:44:34.901Z,-0.77
2022-12-13T20:46:37.152Z,-0.78
2022-12-13T20:48:43.026Z,-0.77
2022-12-13T20:50:44.718Z,-0.76
2022-12-13T20:52:51.871Z,-0.74
2022-12-13T20:54:53.531Z,-0.74
2022-12-13T20:56:55.574Z,-0.75
2022-12-13T20:59:00.496Z,-0.74
2022-12-13T21:01:03.069Z,-0.74
2022-12-13T21:03:04.861Z,-0.73
2022-12-13T21:05:06.990Z,-0.73
2022-12-13T21:07:09.253Z,-0.72
2022-12-13T21:09:11.448Z,-0.74
2022-12-13T21:11:28.388Z,-0.73
2022-12-13T21:13:30.125Z,-0.74
2022-12-13T21:15:32.193Z,-0.73
2022-12-13T21:17:33.777Z,-0.73
2022-12-13T21:19:40.209Z,-0.73
2022-12-13T21:21:42.694Z,-0.71
2022-12-13T21:23:44.367Z,-0.72
2022-12-13T21:25:45.950Z,-0.71
2022-12-13T21:27:49.853Z,-0.70
2022-12-13T21:29:51.700Z,-0.69
2022-12-13T21:31:54.693Z,-0.69
2022-12-13T21:33:59.512Z,-0.68
2022-12-13T21:36:13.171Z,-0.69
2022-12-13T21:38:15.892Z,-0.66
2022-12-13T21:40:17.583Z,-0.66
2022-12-13T21:42:19.969Z,-0.64
2022-12-13T21:44:22.147Z,-0.64
2022-12-13T21:46:47.438Z,-0.63
2022-12-13T21:48:51.644Z,-0.61
2022-12-13T21:50:53.258Z,-0.61
2022-12-13T21:52:54.731Z,-0.61
2022-12-13T21:55:15.358Z,-0.59
2022-12-13T21:57:39.060Z,-0.59
2022-12-13T21:59:49.186Z,-0.57
2022-12-13T22:02:25.514Z,-0.56
2022-12-13T22:04:30.342Z,-0.56
2022-12-13T22:06:31.944Z,-0.55
2022-12-13T22:08:33.624Z,-0.53
2022-12-13T22:10:57.073Z,-0.53
2022-12-13T22:13:04.398Z,-0.51
2022-12-13T22:15:13.060Z,-0.51
2022-12-13T22:17:14.690Z,-0.48
2022-12-13T22:19:16.880Z,-0.49
2022-12-13T22:21:18.608Z,-0.48
2022-12-13T22:23:20.395Z,-0.46
2022-12-13T22:25:22.035Z,-0.45
2022-12-13T22:27:25.094Z,-0.45
2022-12-13T22:29:26.617Z,-0.42
2022-12-13T22:31:30.038Z,-0.42
2022-12-13T22:33:31.899Z,-0.42
2022-12-13T22:35:33.677Z,-0.39
2022-12-13T22:37:35.365Z,-0.37
2022-12-13T22:39:39.618Z,-0.37
2022-12-13T22:41:41.322Z,-0.34
2022-12-13T22:43:46.305Z,-0.34
2022-12-13T22:45:50.050Z,-0.32
2022-12-13T22:47:51.679Z,-0.31
2022-12-13T22:49:53.313Z,-0.29
2022-12-13T22:51:54.976Z,-0.28
2022-12-13T22:53:56.666Z,-0.26
2022-12-13T22:56:05.313Z,-0.26
2022-12-13T22:58:06.850Z,-0.23
2022-12-13T23:00:10.203Z,-0.21
2022-12-13T23:02:11.912Z,-0.20
2022-12-13T23:04:13.569Z,-0.19
2022-12-13T23:06:16.377Z,-0.19
2022-12-13T23:08:18.191Z,-0.17
2022-12-13T23:10:38.326Z,-0.16
2022-12-13T23:13:09.090Z,-0.17
2022-12-13T23:15:14.450Z,-0.18
2022-12-13T23:17:16.037Z,-0.16
2022-12-13T23:21:41.340Z,-0.15
2022-12-13T23:23:42.956Z,-0.14
2022-12-13T23:25:44.680Z,-0.11
2022-12-13T23:27:50.712Z,-0.12
2022-12-13T23:29:52.264Z,-0.11
2022-12-13T23:31:56.258Z,-0.08
2022-12-13T23:33:58.022Z,-0.07
2022-12-13T23:36:04.981Z,-0.06
2022-12-13T23:38:11.091Z,-0.04
2022-12-13T23:40:12.624Z,-0.03
2022-12-13T23:42:15.601Z,-0.02
2022-12-13T23:44:17.125Z,0.01
2022-12-13T23:46:21.634Z,0.03
2022-12-13T23:48:27.168Z,0.05
2022-12-13T23:50:28.942Z,0.06
2022-12-13T23:52:30.650Z,0.07
2022-12-13T23:54:32.383Z,0.09
2022-12-13T23:56:34.196Z,0.11
2022-12-13T23:58:40.842Z,0.12
